Time;durP1;ratioP1;P1;durP2;ratioP2;P2;SDS_P1;SDS_P2;PMS_P1;PMS_P2;Temp;Humidity;BMP_temperature;BMP_pressure;BME280_temperature;BME280_humidity;BME280_pressure;Samples;Min_cycle;Max_cycle;Signal;HPM_P1;HPM_P2
2024/02/21 06:59:17;;;;;;;2.17;1.30;;;22.70;60.10;;;;;;5057447;28;20486;-84
2024/02/21 07:01:46;;;;;;;2.30;1.20;;;22.70;60.10;;;;;;5056843;28;20445;-80
2024/02/21 07:04:13;;;;;;;1.87;1.10;;;22.70;59.50;;;;;;5056757;28;20485;-79
2024/02/21 07:06:40;;;;;;;1.90;1.17;;;22.80;59.10;;;;;;5056511;28;20451;-79
2024/02/21 07:09:06;;;;;;;1.87;1.17;;;22.70;59.10;;;;;;5056836;28;20461;-79
2024/02/21 07:11:33;;;;;;;1.60;1.00;;;22.70;59.60;;;;;;5056762;28;20446;-80
2024/02/21 07:14:00;;;;;;;1.80;1.20;;;22.70;59.90;;;;;;5057101;28;20510;-84
2024/02/21 07:16:29;;;;;;;1.73;1.20;;;22.70;60.00;;;;;;5058023;28;20444;-93
2024/02/21 07:18:56;;;;;;;2.17;1.33;;;22.70;59.10;;;;;;5058061;28;20429;-91
2024/02/21 07:21:23;;;;;;;2.00;1.40;;;22.60;59.00;;;;;;5059299;28;20527;-86
2024/02/21 07:23:52;;;;;;;3.70;1.30;;;22.70;59.80;;;;;;5076159;28;20532;-90
2024/02/21 07:26:19;;;;;;;2.63;1.30;;;22.60;60.00;;;;;;5092009;28;20439;-90
2024/02/21 07:28:46;;;;;;;3.83;1.63;;;22.70;60.00;;;;;;5099931;28;20464;-91
2024/02/21 07:31:13;;;;;;;3.70;1.63;;;22.70;60.80;;;;;;5085879;28;20444;-86
2024/02/21 07:33:41;;;;;;;4.30;1.47;;;22.60;60.00;;;;;;5077882;28;20983;-90
2024/02/21 07:36:09;;;;;;;2.73;1.30;;;22.70;60.10;;;;;;5078278;28;20879;-89
2024/02/21 07:38:35;;;;;;;2.60;1.20;;;22.70;60.00;;;;;;5073540;28;20510;-93
2024/02/21 07:41:03;;;;;;;2.43;1.20;;;22.70;60.10;;;;;;5077298;28;20502;-92
2024/02/21 07:43:32;;;;;;;2.30;1.40;;;22.70;60.10;;;;;;5067722;28;20539;-88
2024/02/21 07:45:59;;;;;;;2.60;1.10;;;22.70;60.10;;;;;;5056736;28;20499;-92
2024/02/21 07:48:26;;;;;;;2.50;1.30;;;22.80;60.40;;;;;;5056773;28;20513;-88
2024/02/21 07:50:54;;;;;;;2.97;1.47;;;22.70;60.30;;;;;;5056875;28;20453;-89
2024/02/21 07:53:21;;;;;;;3.77;1.50;;;22.70;60.20;;;;;;5056893;28;20473;-91
2024/02/21 07:55:48;;;;;;;2.30;1.40;;;22.70;61.00;;;;;;5064218;28;20440;-89
2024/02/21 07:58:15;;;;;;;2.47;1.40;;;22.70;60.10;;;;;;5077278;28;20553;-89
2024/02/21 08:00:42;;;;;;;2.20;1.33;;;22.70;60.10;;;;;;5077078;28;20459;-87
2024/02/21 08:03:09;;;;;;;3.50;1.30;;;22.70;60.20;;;;;;5076248;28;20714;-94
2024/02/21 08:05:36;;;;;;;10.70;1.47;;;22.80;60.20;;;;;;5075720;28;20987;-85
2024/02/21 08:08:04;;;;;;;2.80;1.67;;;22.80;60.10;;;;;;5074786;28;20461;-88
2024/02/21 08:10:31;;;;;;;4.60;1.50;;;22.80;60.20;;;;;;5075319;28;20432;-91
2024/02/21 08:12:58;;;;;;;1.80;1.10;;;22.80;60.10;;;;;;5076132;28;20448;-85
2024/02/21 08:15:29;;;;;;;1.80;1.13;;;22.80;60.20;;;;;;5088173;28;20453;-79
2024/02/21 08:17:58;;;;;;;2.83;1.60;;;22.90;60.30;;;;;;5085256;28;20440;-83
2024/02/21 08:20:25;;;;;;;2.40;1.40;;;22.80;60.10;;;;;;5076459;28;20447;-85
2024/02/21 08:22:52;;;;;;;2.10;1.23;;;22.80;60.20;;;;;;5075178;28;20451;-83
2024/02/21 08:25:20;;;;;;;2.00;1.30;;;22.80;60.20;;;;;;5075031;28;20491;-83
2024/02/21 08:27:47;;;;;;;2.73;1.23;;;22.80;60.20;;;;;;5074628;28;20447;-83
2024/02/21 08:30:14;;;;;;;2.20;1.20;;;22.80;60.30;;;;;;5072331;28;20453;-84
2024/02/21 08:32:41;;;;;;;1.87;1.33;;;22.80;60.30;;;;;;5074580;28;20444;-83
2024/02/21 08:35:09;;;;;;;2.10;1.30;;;22.80;60.20;;;;;;5074301;28;20547;-86
2024/02/21 08:37:36;;;;;;;5.80;1.67;;;22.80;60.20;;;;;;5075048;28;20468;-90
2024/02/21 08:40:08;;;;;;;5.00;1.30;;;22.80;60.40;;;;;;5075595;28;20450;-90
2024/02/21 08:42:36;;;;;;;2.87;1.40;;;22.80;60.30;;;;;;5073115;28;20523;-84
2024/02/21 08:45:03;;;;;;;3.83;1.73;;;22.80;60.30;;;;;;5063542;28;20488;-84
2024/02/21 08:47:30;;;;;;;5.23;1.53;;;22.80;60.40;;;;;;5074490;28;20915;-85
2024/02/21 08:49:56;;;;;;;4.30;1.23;;;22.80;60.40;;;;;;5074471;28;20432;-86
2024/02/21 08:52:23;;;;;;;6.57;2.03;;;22.80;60.30;;;;;;5065327;28;20444;-89
2024/02/21 08:54:53;;;;;;;2.40;1.17;;;22.80;60.30;;;;;;5054943;28;20488;-85
2024/02/21 08:57:20;;;;;;;2.30;1.20;;;22.80;60.30;;;;;;5059151;28;20445;-89
2024/02/21 08:59:48;;;;;;;2.93;1.27;;;22.80;60.30;;;;;;5075104;28;20947;-89
2024/02/21 09:02:16;;;;;;;8.80;1.50;;;22.90;60.50;;;;;;5074946;28;20444;-89
2024/02/21 09:04:43;;;;;;;3.40;1.30;;;22.70;60.20;;;;;;5074507;28;20967;-89
2024/02/21 09:07:10;;;;;;;2.00;1.27;;;22.80;60.30;;;;;;5074159;28;20966;-89
2024/02/21 09:09:38;;;;;;;3.17;1.50;;;22.80;60.40;;;;;;5074135;28;20436;-94
2024/02/21 09:12:06;;;;;;;2.47;1.40;;;22.80;60.40;;;;;;5074105;28;20451;-87
2024/02/21 09:14:33;;;;;;;2.30;1.40;;;22.80;60.40;;;;;;5074747;28;20502;-85
2024/02/21 09:17:01;;;;;;;5.57;1.30;;;22.90;60.40;;;;;;5074175;28;20440;-87
2024/02/21 09:19:28;;;;;;;2.67;1.10;;;22.80;60.30;;;;;;5073914;28;20451;-88
2024/02/21 09:21:54;;;;;;;2.07;1.13;;;22.90;60.40;;;;;;5074465;28;20436;-87
2024/02/21 09:24:22;;;;;;;3.10;1.23;;;22.80;60.30;;;;;;5074447;28;20479;-89
2024/02/21 09:26:49;;;;;;;3.93;0.80;;;22.80;60.20;;;;;;5059589;28;20808;-91
2024/02/21 09:29:16;;;;;;;2.73;1.50;;;22.80;61.10;;;;;;5071752;28;20452;-84
2024/02/21 09:31:43;;;;;;;5.40;1.30;;;22.80;60.30;;;;;;5074356;28;20444;-86
2024/02/21 09:34:12;;;;;;;2.40;1.40;;;22.80;60.20;;;;;;5074285;28;20444;-86
2024/02/21 09:36:40;;;;;;;3.10;1.50;;;22.80;60.40;;;;;;5073979;28;20444;-89
2024/02/21 09:39:07;;;;;;;2.50;1.13;;;22.80;60.20;;;;;;5074441;28;20472;-93
2024/02/21 09:41:39;;;;;;;2.07;1.20;;;22.80;60.20;;;;;;5067245;28;20452;-84
2024/02/21 09:44:06;;;;;;;2.33;1.20;;;22.80;60.10;;;;;;5066247;28;20484;-80
2024/02/21 09:46:52;;;;;;;2.50;1.20;;;22.80;60.10;;;;;;5068665;28;20433;-85
2024/02/21 09:49:31;;;;;;;2.93;1.50;;;22.80;60.00;;;;;;5074327;28;20444;-80
2024/02/21 09:52:00;;;;;;;3.10;1.63;;;22.80;60.10;;;;;;5067075;28;20468;-80
2024/02/21 09:54:29;;;;;;;1.90;1.30;;;22.80;60.10;;;;;;5066308;28;20476;-80
2024/02/21 09:56:56;;;;;;;1.97;1.10;;;22.80;60.10;;;;;;5070750;28;20928;-80
2024/02/21 09:59:24;;;;;;;4.80;1.43;;;22.80;59.90;;;;;;5072147;28;20839;-80
2024/02/21 10:01:51;;;;;;;2.00;1.30;;;22.80;59.90;;;;;;5072560;28;20769;-81
2024/02/21 10:04:19;;;;;;;3.50;1.20;;;22.80;60.00;;;;;;5062783;28;20480;-95
2024/02/21 10:06:48;;;;;;;2.90;1.27;;;22.80;59.90;;;;;;5053076;28;20442;-85
2024/02/21 10:09:22;;;;;;;3.80;1.67;;;22.90;59.80;;;;;;5053295;28;20536;-87
2024/02/21 13:15:43;;;;;;;6.80;3.40;;;23.00;59.00;;;;;;5057177;28;21029;-79
2024/02/21 13:18:10;;;;;;;12.60;3.50;;;23.10;59.30;;;;;;5073986;28;20444;-88
2024/02/21 13:20:37;;;;;;;11.20;3.20;;;23.00;59.50;;;;;;5065578;28;20449;-77
2024/02/21 13:23:04;;;;;;;9.63;3.17;;;23.00;59.10;;;;;;5071723;28;20454;-77
2024/02/21 13:25:31;;;;;;;9.40;3.17;;;23.10;59.40;;;;;;5072461;28;20484;-78
2024/02/21 13:27:58;;;;;;;7.80;3.23;;;23.10;59.60;;;;;;5075894;28;20464;-79
2024/02/21 13:30:25;;;;;;;6.07;2.80;;;23.10;59.60;;;;;;5074977;28;20440;-78
2024/02/21 13:32:54;;;;;;;6.30;2.70;;;23.20;59.60;;;;;;5074244;28;20981;-78
2024/02/21 13:35:21;;;;;;;6.03;2.13;;;23.20;59.40;;;;;;5072898;28;20497;-78
2024/02/21 13:37:48;;;;;;;9.47;3.10;;;23.20;59.20;;;;;;5073018;28;20457;-78
2024/02/21 13:40:15;;;;;;;11.37;3.20;;;23.20;59.40;;;;;;5073121;28;20441;-78
2024/02/21 13:42:42;;;;;;;7.07;2.73;;;23.20;59.30;;;;;;5072205;28;20787;-78
2024/02/21 13:45:10;;;;;;;4.43;2.90;;;23.20;59.40;;;;;;5072099;28;20570;-78
2024/02/21 13:47:38;;;;;;;4.37;2.77;;;23.20;59.40;;;;;;5072074;28;20440;-78
2024/02/21 13:50:10;;;;;;;3.40;2.27;;;23.20;59.20;;;;;;5072299;28;20448;-78
2024/02/21 13:52:37;;;;;;;4.83;1.97;;;23.20;59.20;;;;;;5072837;28;20440;-80
2024/02/21 13:55:04;;;;;;;5.13;2.70;;;23.20;59.20;;;;;;5073786;28;20958;-79
2024/02/21 13:57:33;;;;;;;8.20;2.57;;;23.20;59.20;;;;;;5073102;28;20455;-76
2024/02/21 14:00:00;;;;;;;5.97;2.70;;;23.20;59.10;;;;;;5075275;28;20498;-77
2024/02/21 14:02:27;;;;;;;5.20;1.87;;;23.20;59.20;;;;;;5076730;28;20428;-80
2024/02/21 14:04:53;;;;;;;4.27;2.27;;;23.20;59.10;;;;;;5074506;28;20807;-79
2024/02/21 14:07:22;;;;;;;8.27;2.70;;;23.30;59.10;;;;;;5076351;28;20488;-87
2024/02/21 14:09:49;;;;;;;4.70;2.07;;;23.20;59.10;;;;;;5076311;28;20433;-78
2024/02/21 14:12:17;;;;;;;3.77;2.23;;;23.20;59.00;;;;;;5076788;28;20532;-81
2024/02/21 14:14:45;;;;;;;3.97;1.80;;;23.20;59.00;;;;;;5076126;28;20475;-78
2024/02/21 14:17:12;;;;;;;6.17;2.30;;;23.20;58.90;;;;;;5075753;28;20992;-80
2024/02/21 14:19:39;;;;;;;3.10;2.07;;;23.20;59.00;;;;;;5075819;28;20444;-82
2024/02/21 14:22:06;;;;;;;2.57;1.50;;;23.10;59.00;;;;;;5076511;28;20442;-83
2024/02/21 14:24:34;;;;;;;3.90;2.30;;;23.10;58.90;;;;;;5073166;28;20462;-79
2024/02/21 14:27:01;;;;;;;4.50;2.27;;;23.20;58.80;;;;;;5073287;28;20433;-83
2024/02/21 14:29:29;;;;;;;4.87;1.90;;;23.20;59.10;;;;;;5072776;28;20437;-81
2024/02/21 14:31:55;;;;;;;3.70;1.80;;;23.10;58.70;;;;;;5073000;28;20490;-81
2024/02/21 14:34:22;;;;;;;3.93;2.17;;;23.10;58.70;;;;;;5073266;28;20436;-81
2024/02/21 14:36:49;;;;;;;2.70;1.80;;;23.10;58.70;;;;;;5072999;28;20460;-81
2024/02/21 14:39:16;;;;;;;4.57;2.63;;;23.10;58.80;;;;;;5072912;28;20807;-92
2024/02/21 14:41:44;;;;;;;4.60;2.10;;;23.10;58.80;;;;;;5072784;28;20836;-80
2024/02/21 14:44:11;;;;;;;3.50;1.97;;;23.00;58.70;;;;;;5074884;28;20447;-80
2024/02/21 14:46:38;;;;;;;4.40;2.27;;;23.00;58.80;;;;;;5079076;28;20484;-80
2024/02/21 14:49:05;;;;;;;3.70;2.00;;;23.00;58.70;;;;;;5078719;28;20440;-80
2024/02/21 14:51:35;;;;;;;3.10;1.77;;;23.00;58.80;;;;;;5078134;28;20440;-80
2024/02/21 14:54:01;;;;;;;2.43;1.77;;;23.00;58.70;;;;;;5076813;28;20444;-88
2024/02/21 14:56:28;;;;;;;5.50;2.17;;;23.00;58.80;;;;;;5076591;28;20436;-80
2024/02/21 14:58:56;;;;;;;2.73;1.70;;;23.00;58.80;;;;;;5076561;28;20447;-80
2024/02/21 15:01:23;;;;;;;3.10;1.70;;;23.00;58.70;;;;;;5077013;28;20927;-93
2024/02/21 15:03:51;;;;;;;4.20;1.80;;;22.90;59.20;;;;;;5076586;28;20436;-80
2024/02/21 15:06:18;;;;;;;3.97;1.63;;;22.90;58.60;;;;;;5076102;28;20567;-80
2024/02/21 15:08:45;;;;;;;5.50;1.70;;;23.00;58.80;;;;;;5076295;28;20440;-80
2024/02/21 15:11:12;;;;;;;2.97;2.00;;;22.90;58.60;;;;;;5076073;28;20802;-81
2024/02/21 15:13:38;;;;;;;3.57;1.70;;;22.90;58.60;;;;;;5076272;28;20799;-80
2024/02/21 15:16:07;;;;;;;3.90;2.00;;;22.90;58.60;;;;;;5056435;28;20911;-80
2024/02/21 15:18:37;;;;;;;2.70;1.80;;;22.90;58.50;;;;;;5056088;28;20429;-80
2024/02/21 15:21:04;;;;;;;4.20;1.80;;;22.90;58.50;;;;;;5056199;28;20437;-81
2024/02/21 15:23:31;;;;;;;3.33;1.87;;;22.90;58.30;;;;;;5056071;28;20430;-85
2024/02/21 15:25:59;;;;;;;3.60;1.73;;;22.90;58.40;;;;;;5055935;28;20489;-80
2024/02/21 15:28:28;;;;;;;4.40;2.10;;;22.90;58.40;;;;;;5056987;28;20560;-83
2024/02/21 15:30:55;;;;;;;3.07;1.40;;;22.90;59.00;;;;;;5055494;28;20449;-83
2024/02/21 15:33:23;;;;;;;2.47;1.70;;;22.90;58.70;;;;;;5057560;28;20450;-94
2024/02/21 15:35:50;;;;;;;2.87;1.57;;;22.90;58.70;;;;;;5058738;28;20429;-83
2024/02/21 15:38:17;;;;;;;3.43;1.60;;;23.00;58.90;;;;;;5040133;28;20458;-92
2024/02/21 15:40:44;;;;;;;5.87;2.77;;;23.10;59.00;;;;;;5056309;28;20433;-83
2024/02/21 15:43:10;;;;;;;3.50;1.60;;;23.10;59.00;;;;;;5056268;28;20433;-82
2024/02/21 15:45:39;;;;;;;4.03;1.50;;;23.20;59.00;;;;;;5055965;28;20551;-96
2024/02/21 15:48:06;;;;;;;2.50;1.33;;;23.20;59.00;;;;;;5056287;28;20441;-84
2024/02/21 15:50:35;;;;;;;7.00;1.80;;;23.20;59.00;;;;;;5084009;22;20489;-84
2024/02/21 15:53:02;;;;;;;4.27;1.80;;;23.10;58.40;;;;;;5114716;28;20533;-84
2024/02/21 15:55:29;;;;;;;5.40;2.63;;;23.00;59.90;;;;;;5115714;28;20442;-85
2024/02/21 15:57:56;;;;;;;4.57;2.10;;;23.00;60.20;;;;;;5111483;28;20448;-84
2024/02/21 16:00:23;;;;;;;5.60;2.10;;;23.00;60.20;;;;;;5097075;28;20435;-83
2024/02/21 16:02:49;;;;;;;5.43;1.80;;;23.00;60.30;;;;;;5096427;28;20443;-83
2024/02/21 16:05:17;;;;;;;5.10;1.80;;;23.00;60.30;;;;;;5096978;28;20477;-84
2024/02/21 16:07:45;;;;;;;4.80;1.93;;;23.00;60.50;;;;;;5096956;28;20860;-83
2024/02/21 16:10:12;;;;;;;3.83;2.10;;;23.00;60.40;;;;;;5096489;28;20438;-83
2024/02/21 16:12:40;;;;;;;4.30;2.10;;;23.00;60.50;;;;;;5096067;28;20435;-84
2024/02/21 16:15:10;;;;;;;4.03;1.90;;;23.00;60.40;;;;;;5097459;28;20443;-84
2024/02/21 16:17:37;;;;;;;4.40;1.60;;;23.00;60.50;;;;;;5096567;28;20617;-82
2024/02/21 16:20:09;;;;;;;3.40;1.50;;;23.00;60.50;;;;;;5097774;28;20469;-82
2024/02/21 16:22:35;;;;;;;4.30;1.50;;;23.00;60.60;;;;;;5096682;28;20439;-83
2024/02/21 16:25:04;;;;;;;6.17;1.70;;;23.00;60.50;;;;;;5096890;28;20447;-84
2024/02/21 16:27:31;;;;;;;3.07;1.63;;;23.10;60.60;;;;;;5096426;28;20509;-83
2024/02/21 16:29:58;;;;;;;3.13;1.90;;;23.00;60.70;;;;;;5096598;28;20803;-83
2024/02/21 16:32:26;;;;;;;2.60;1.30;;;23.00;60.70;;;;;;5096368;28;20926;-84
2024/02/21 16:34:53;;;;;;;2.70;1.77;;;23.00;60.70;;;;;;5096423;28;20443;-84
2024/02/21 16:37:21;;;;;;;4.43;1.70;;;23.00;60.80;;;;;;5101126;28;20546;-82
2024/02/21 16:39:48;;;;;;;2.93;1.50;;;23.00;60.80;;;;;;5108180;28;20558;-83
2024/02/21 16:42:16;;;;;;;2.67;1.83;;;23.00;60.90;;;;;;5105782;28;20438;-79
2024/02/21 16:44:43;;;;;;;3.13;2.10;;;23.00;60.80;;;;;;5101031;28;20439;-82
2024/02/21 16:47:10;;;;;;;7.67;2.10;;;23.00;57.80;;;;;;5096373;28;20494;-83
2024/02/21 16:49:37;;;;;;;3.63;1.53;;;23.00;57.90;;;;;;5095090;28;20471;-83
2024/02/21 16:52:04;;;;;;;3.03;1.93;;;22.90;59.00;;;;;;5094643;28;20439;-80
2024/02/21 16:54:31;;;;;;;3.23;1.53;;;22.90;59.30;;;;;;5094445;28;20447;-79
2024/02/21 16:56:58;;;;;;;4.20;1.87;;;22.90;59.00;;;;;;5094451;28;20431;-79
2024/02/21 16:59:26;;;;;;;3.20;1.63;;;22.90;59.40;;;;;;5094550;28;20522;-79
2024/02/21 17:01:53;;;;;;;5.17;1.60;;;22.90;59.20;;;;;;5094396;28;20454;-79
2024/02/21 17:04:20;;;;;;;2.70;1.70;;;22.80;59.10;;;;;;5094272;28;20443;-79
2024/02/21 17:06:47;;;;;;;3.30;1.40;;;22.80;59.10;;;;;;5093952;28;20486;-86
2024/02/21 17:09:17;;;;;;;4.17;1.47;;;22.80;59.20;;;;;;5094499;28;20432;-79
2024/02/21 17:11:44;;;;;;;5.60;1.73;;;22.80;59.10;;;;;;5094394;28;20509;-79
2024/02/21 17:14:11;;;;;;;7.93;1.50;;;22.80;58.70;;;;;;5094275;28;20436;-80
2024/02/21 17:16:39;;;;;;;4.17;1.67;;;22.90;58.70;;;;;;5094269;28;20440;-80
2024/02/21 17:19:05;;;;;;;3.87;1.27;;;22.90;59.40;;;;;;5094242;28;20435;-79
2024/02/21 17:21:32;;;;;;;4.20;1.50;;;22.90;59.10;;;;;;5094145;28;20446;-79
2024/02/21 17:23:59;;;;;;;2.50;1.43;;;22.80;59.00;;;;;;5094577;28;20439;-79
2024/02/21 17:26:26;;;;;;;3.27;1.60;;;22.80;59.00;;;;;;5093900;28;20490;-80
2024/02/21 17:28:54;;;;;;;5.80;1.83;;;22.80;59.80;;;;;;5094148;28;20440;-78
2024/02/21 17:31:21;;;;;;;5.00;1.80;;;22.80;59.60;;;;;;5093958;28;20478;-82
2024/02/21 17:33:50;;;;;;;4.03;1.47;;;22.80;60.00;;;;;;5094086;28;20471;-79
2024/02/21 17:36:17;;;;;;;7.20;2.00;;;22.80;60.20;;;;;;5093722;28;20450;-82
2024/02/21 17:38:43;;;;;;;3.20;1.73;;;22.90;59.80;;;;;;5093970;28;20437;-86
2024/02/21 17:41:10;;;;;;;4.37;2.30;;;22.80;59.00;;;;;;5093902;28;20435;-80
2024/02/21 17:43:37;;;;;;;7.27;1.57;;;22.80;58.40;;;;;;5093904;28;20430;-81
2024/02/21 17:46:06;;;;;;;12.67;1.53;;;22.80;58.40;;;;;;5094028;28;20550;-82
2024/02/21 17:48:33;;;;;;;9.70;2.00;;;22.90;58.90;;;;;;5093920;28;20875;-84
2024/02/21 17:51:03;;;;;;;5.70;1.60;;;22.90;59.20;;;;;;5093849;28;20479;-82
2024/02/21 17:53:30;;;;;;;6.40;2.30;;;22.90;59.20;;;;;;5095572;28;20458;-82
2024/02/21 17:55:57;;;;;;;4.33;1.57;;;22.90;59.30;;;;;;5096230;28;20450;-83
2024/02/21 17:58:24;;;;;;;8.03;2.07;;;22.90;59.30;;;;;;5108948;28;20432;-83
2024/02/21 18:00:53;;;;;;;2.73;1.50;;;22.90;59.60;;;;;;5116474;28;20432;-83
2024/02/21 18:03:20;;;;;;;5.40;2.00;;;22.90;59.60;;;;;;5107481;28;20942;-83
2024/02/21 18:05:48;;;;;;;7.30;1.70;;;23.00;59.90;;;;;;5094023;28;20478;-95
2024/02/21 18:08:16;;;;;;;2.00;1.40;;;22.90;60.00;;;;;;5094508;28;20554;-85
2024/02/21 18:10:43;;;;;;;4.50;2.13;;;22.90;59.90;;;;;;5094068;28;20460;-86
2024/02/21 18:13:10;;;;;;;4.77;1.90;;;23.00;60.10;;;;;;5094105;28;20462;-86
2024/02/21 18:15:36;;;;;;;3.60;1.77;;;23.00;60.00;;;;;;5094586;28;20438;-86
2024/02/21 18:18:04;;;;;;;10.20;1.97;;;23.00;60.20;;;;;;5093070;28;20442;-86
2024/02/21 18:20:31;;;;;;;7.80;1.80;;;23.00;60.20;;;;;;5094047;28;20450;-86
2024/02/21 18:22:57;;;;;;;5.20;1.60;;;23.00;60.30;;;;;;5095248;28;20538;-88
2024/02/21 18:25:25;;;;;;;2.80;1.77;;;23.10;60.40;;;;;;5094208;28;20439;-86
2024/02/21 18:27:53;;;;;;;4.37;1.73;;;23.00;60.30;;;;;;5095902;28;20483;-85
2024/02/21 18:30:20;;;;;;;6.03;1.70;;;23.00;60.40;;;;;;5095011;28;20439;-83
2024/02/21 18:32:46;;;;;;;2.37;1.30;;;23.00;60.40;;;;;;5095823;28;20944;-84
2024/02/21 18:35:14;;;;;;;2.70;1.80;;;23.10;60.40;;;;;;5094640;28;20451;-85
2024/02/21 18:37:41;;;;;;;2.67;1.63;;;23.00;61.20;;;;;;5094579;28;20456;-85
2024/02/21 18:40:12;;;;;;;3.93;1.87;;;23.00;60.20;;;;;;5094282;28;20435;-84
2024/02/21 18:42:41;;;;;;;3.03;1.50;;;23.00;60.20;;;;;;5095275;28;20439;-86
2024/02/21 18:45:09;;;;;;;3.00;1.40;;;23.00;60.20;;;;;;5094854;28;20450;-88
2024/02/21 18:47:36;;;;;;;2.80;1.53;;;23.00;61.10;;;;;;5094497;28;20557;-87
2024/02/21 18:50:04;;;;;;;3.27;1.27;;;23.00;60.40;;;;;;5094454;28;20494;-86
2024/02/21 18:52:30;;;;;;;2.33;1.33;;;23.00;60.30;;;;;;5095646;28;20530;-86
2024/02/21 18:54:58;;;;;;;3.10;1.37;;;23.00;60.30;;;;;;5095460;28;20438;-89
2024/02/21 18:57:25;;;;;;;2.43;1.57;;;23.00;60.30;;;;;;5093990;28;20485;-85
2024/02/21 18:59:54;;;;;;;2.70;1.30;;;23.00;60.40;;;;;;5093250;28;20442;-87
2024/02/21 19:02:21;;;;;;;3.70;1.47;;;23.10;60.50;;;;;;5093747;28;20937;-85
2024/02/21 19:04:48;;;;;;;2.80;1.70;;;23.10;60.40;;;;;;5093103;28;20530;-91
2024/02/21 19:07:16;;;;;;;2.33;1.40;;;23.00;60.20;;;;;;5097698;28;20855;-88
2024/02/21 19:09:43;;;;;;;4.70;1.83;;;23.00;60.30;;;;;;5094169;28;20512;-91
2024/02/21 19:12:10;;;;;;;5.30;1.53;;;23.00;60.00;;;;;;5110133;28;20443;-89
2024/02/21 19:14:36;;;;;;;5.60;1.40;;;23.00;60.10;;;;;;5113843;28;20434;-88
2024/02/21 19:17:05;;;;;;;4.13;1.47;;;23.00;58.80;;;;;;5115360;28;20446;-86
2024/02/21 19:19:33;;;;;;;2.43;1.60;;;23.00;59.10;;;;;;5102939;28;20812;-88
2024/02/21 19:22:00;;;;;;;3.60;1.80;;;23.00;59.30;;;;;;5089526;28;20471;-92
2024/02/21 19:24:27;;;;;;;6.10;1.90;;;23.00;59.80;;;;;;5104036;28;20439;-86
2024/02/21 19:26:54;;;;;;;3.10;1.43;;;23.00;60.00;;;;;;5114128;28;20478;-91
2024/02/21 19:29:21;;;;;;;2.07;1.17;;;23.10;60.20;;;;;;5115874;28;20445;-90
2024/02/21 19:31:47;;;;;;;3.60;1.23;;;23.00;60.10;;;;;;5118641;28;20489;-90
2024/02/21 19:34:15;;;;;;;3.17;1.23;;;23.00;60.20;;;;;;5121482;28;20929;-86
2024/02/21 19:36:42;;;;;;;2.73;1.30;;;23.00;60.30;;;;;;5134583;28;20530;-84
2024/02/21 19:39:10;;;;;;;2.13;1.23;;;23.00;60.50;;;;;;5120142;28;20442;-87
2024/02/21 19:41:38;;;;;;;3.10;1.70;;;23.00;60.40;;;;;;5117915;28;20464;-86
2024/02/21 19:44:05;;;;;;;6.23;1.27;;;23.00;60.50;;;;;;5118712;28;20438;-85
2024/02/21 19:46:32;;;;;;;2.90;1.30;;;23.00;60.60;;;;;;5117375;28;20972;-85
2024/02/21 19:48:59;;;;;;;2.20;1.10;;;23.00;60.50;;;;;;5117275;28;20538;-88
2024/02/21 19:51:27;;;;;;;2.23;1.20;;;23.00;60.50;;;;;;5116994;28;20466;-82
2024/02/21 19:53:55;;;;;;;5.93;1.10;;;23.00;60.60;;;;;;5117861;28;20445;-85
2024/02/21 19:56:22;;;;;;;2.90;1.40;;;23.00;60.60;;;;;;5117290;28;20427;-88
2024/02/21 19:58:49;;;;;;;3.00;1.37;;;23.00;60.70;;;;;;5117967;28;20493;-88
2024/02/21 20:01:17;;;;;;;2.53;1.53;;;23.00;60.50;;;;;;5117329;28;20461;-89
2024/02/21 20:03:44;;;;;;;3.37;1.13;;;23.10;60.60;;;;;;5118152;28;20445;-92
2024/02/21 20:06:11;;;;;;;3.00;1.27;;;23.10;60.50;;;;;;5113732;28;20812;-86
2024/02/21 20:08:39;;;;;;;7.80;1.63;;;23.00;60.60;;;;;;5117797;28;20528;-85
2024/02/21 20:11:06;;;;;;;2.83;1.60;;;23.10;60.70;;;;;;5106875;28;20478;-87
2024/02/21 20:13:33;;;;;;;2.00;1.30;;;23.10;60.60;;;;;;5097461;28;20443;-88
2024/02/21 20:16:00;;;;;;;3.53;1.03;;;23.10;60.70;;;;;;5096054;28;20451;-85
2024/02/21 20:18:27;;;;;;;2.27;1.20;;;23.10;60.70;;;;;;5096536;28;20516;-84
2024/02/21 20:20:54;;;;;;;2.43;1.20;;;23.10;60.60;;;;;;5096370;28;20778;-85
2024/02/21 20:23:21;;;;;;;2.10;1.00;;;23.10;60.60;;;;;;5076726;28;20808;-88
2024/02/21 20:25:50;;;;;;;2.83;1.50;;;23.10;61.50;;;;;;5088511;28;20439;-87
2024/02/21 20:28:18;;;;;;;5.63;1.50;;;23.10;60.70;;;;;;5117123;28;20500;-87
2024/02/21 20:30:45;;;;;;;2.23;1.07;;;23.10;60.60;;;;;;5116462;28;20438;-85
2024/02/21 20:33:12;;;;;;;2.07;1.20;;;23.10;60.80;;;;;;5116459;28;20513;-91
2024/02/21 20:35:39;;;;;;;5.47;1.50;;;23.10;60.80;;;;;;5116222;28;20470;-84
2024/02/21 20:38:06;;;;;;;3.00;1.17;;;23.10;60.80;;;;;;5116032;28;20454;-84
2024/02/21 20:40:34;;;;;;;2.20;1.40;;;23.10;60.90;;;;;;5115647;28;20935;-84
2024/02/21 20:43:04;;;;;;;6.30;1.47;;;23.10;60.80;;;;;;5115504;28;20802;-89
2024/02/21 20:45:32;;;;;;;1.60;1.00;;;23.10;60.80;;;;;;5115943;28;20438;-82
2024/02/21 20:47:59;;;;;;;2.13;1.27;;;23.10;60.70;;;;;;5115840;28;20483;-83
2024/02/21 20:50:26;;;;;;;2.80;1.27;;;23.10;60.50;;;;;;5115651;28;20470;-82
2024/02/21 20:52:52;;;;;;;1.70;0.90;;;23.10;60.90;;;;;;5115519;28;20439;-94
2024/02/21 20:55:23;;;;;;;2.80;1.07;;;23.10;60.80;;;;;;5115899;28;20435;-83
2024/02/21 20:57:51;;;;;;;2.23;1.30;;;23.10;60.70;;;;;;5115572;28;20438;-85
2024/02/21 21:00:21;;;;;;;3.00;1.50;;;23.10;60.60;;;;;;5116094;28;20447;-92
2024/02/21 21:02:48;;;;;;;2.30;1.20;;;23.10;60.50;;;;;;5115092;28;20439;-88
2024/02/21 21:05:17;;;;;;;1.83;1.00;;;23.10;60.50;;;;;;5116400;28;20438;-84
2024/02/21 21:07:43;;;;;;;2.37;1.10;;;23.20;60.50;;;;;;5115773;28;20521;-85
2024/02/21 21:10:12;;;;;;;2.00;1.30;;;23.10;60.50;;;;;;5115924;28;20533;-84
2024/02/21 21:12:39;;;;;;;3.07;1.30;;;23.10;60.40;;;;;;5116093;28;20435;-84
2024/02/21 21:15:07;;;;;;;4.90;1.23;;;23.10;60.60;;;;;;5139063;28;20438;-85
2024/02/21 21:17:36;;;;;;;2.60;1.30;;;23.10;60.50;;;;;;5136659;28;20441;-85
2024/02/21 21:20:08;;;;;;;2.73;1.10;;;23.10;60.50;;;;;;5124572;28;20431;-83
2024/02/21 21:22:35;;;;;;;2.67;1.50;;;23.10;60.40;;;;;;5122798;28;20446;-84
2024/02/21 21:25:04;;;;;;;2.23;1.30;;;23.10;60.40;;;;;;5116307;28;20521;-84
2024/02/21 21:27:30;;;;;;;1.80;1.20;;;23.20;60.30;;;;;;5115491;28;20482;-84
2024/02/21 21:29:57;;;;;;;2.90;1.40;;;23.20;60.10;;;;;;5115064;28;20446;-84
2024/02/21 21:32:24;;;;;;;3.90;1.30;;;23.20;60.20;;;;;;5115055;28;20933;-83
2024/02/21 21:34:52;;;;;;;1.90;1.30;;;23.20;60.10;;;;;;5118897;28;20460;-84
2024/02/21 21:37:19;;;;;;;2.83;1.03;;;23.20;60.10;;;;;;5117799;28;20455;-85
2024/02/21 21:39:49;;;;;;;2.60;1.10;;;23.20;60.10;;;;;;5117472;28;20434;-85
2024/02/21 21:42:24;;;;;;;1.70;1.10;;;23.20;60.00;;;;;;5116642;28;20431;-84
2024/02/21 21:44:52;;;;;;;2.53;1.20;;;23.20;60.00;;;;;;5115300;28;20434;-84
2024/02/21 21:47:19;;;;;;;1.60;1.10;;;23.10;60.00;;;;;;5115890;28;20467;-84
2024/02/21 21:49:46;;;;;;;2.67;1.60;;;23.10;60.00;;;;;;5116889;28;20433;-84
2024/02/21 21:52:15;;;;;;;3.17;1.30;;;23.20;60.10;;;;;;5118866;28;20445;-83
2024/02/21 21:54:45;;;;;;;2.20;1.10;;;23.20;60.00;;;;;;5120138;28;20437;-84
2024/02/21 21:57:14;;;;;;;1.97;1.20;;;23.10;60.00;;;;;;5117570;28;20925;-84
2024/02/21 21:59:49;;;;;;;2.37;1.30;;;23.10;60.00;;;;;;5118311;28;20439;-85
2024/02/21 22:02:16;;;;;;;2.97;1.20;;;23.10;60.00;;;;;;5118951;28;20477;-85
2024/02/21 22:04:43;;;;;;;1.90;1.00;;;23.10;60.00;;;;;;5118151;28;20936;-83
2024/02/21 22:07:09;;;;;;;2.10;1.37;;;23.10;60.00;;;;;;5117235;27;20885;-84
2024/02/21 22:09:38;;;;;;;2.00;1.13;;;23.10;60.00;;;;;;5116644;28;20445;-86
2024/02/21 22:12:09;;;;;;;1.60;0.90;;;23.10;60.10;;;;;;5117026;28;20441;-87
2024/02/21 22:14:36;;;;;;;2.30;1.00;;;23.10;60.00;;;;;;5116040;28;20426;-85
2024/02/21 22:17:03;;;;;;;1.80;1.10;;;23.10;60.00;;;;;;5114057;28;20438;-85
2024/02/21 22:19:29;;;;;;;2.00;0.90;;;23.00;60.00;;;;;;5114545;28;20441;-85
2024/02/21 22:21:56;;;;;;;2.00;1.10;;;23.00;60.00;;;;;;5114283;28;20449;-84
2024/02/21 22:24:23;;;;;;;2.00;1.20;;;23.00;59.90;;;;;;5114338;28;20441;-90
2024/02/21 22:26:51;;;;;;;2.03;1.20;;;23.00;60.00;;;;;;5114080;28;20855;-91
2024/02/21 22:29:20;;;;;;;2.20;1.50;;;23.00;60.00;;;;;;5114062;28;20486;-85
2024/02/21 22:31:46;;;;;;;1.90;1.00;;;23.00;60.00;;;;;;5114215;28;20445;-89
2024/02/21 22:34:14;;;;;;;2.73;1.47;;;23.00;60.10;;;;;;5114381;28;20439;-84
2024/02/21 22:36:41;;;;;;;2.03;1.03;;;23.00;60.10;;;;;;5114027;28;20458;-83
2024/02/21 22:39:08;;;;;;;2.00;1.00;;;22.90;60.00;;;;;;5114016;28;20435;-85
2024/02/21 22:41:35;;;;;;;2.10;1.10;;;23.00;60.20;;;;;;5114312;28;20453;-85
2024/02/21 22:44:04;;;;;;;1.70;1.10;;;22.90;60.10;;;;;;5114167;28;20430;-85
2024/02/21 22:46:31;;;;;;;1.50;0.90;;;22.90;60.10;;;;;;5114051;28;20431;-85
2024/02/21 22:48:57;;;;;;;1.87;1.07;;;23.00;60.20;;;;;;5114910;28;20481;-83